Lahore, Pakistan
Current Conditions -  °F | °C
As of 6:25 PM on Wednesday 22 Oct 2014 (Local Time) from OPLA Reporting Station
Haze Haze  
Wind Chill: 84°   Ceiling: Unl
Heat Index: 84°   Visibility: 3mi
Dew Point: 57°   Wind: 0mph
Humidity: 40%   Direction: NA
Pressure: 29.97"   Gusts: NA
Location:  31.56°N, 74.35°E
Report Text: OPLA 221325Z 00000KT 5000 HZ NSC 29/14 Q1015
Loading
Personal Weather Stations






























Interactive Weather Map
Tropical Storm Tracking
New forecast layout! Learn more

10-Day Weather Forecast

Advertisements
Track Severe Weather on mobile